sensor_id;sensor_type;location;lat;lon;timestamp;P1;durP1;ratioP1;P2;durP2;ratioP2
84864;SDS011;75122;41.650;25.368;2024-01-30T00:00:21;8.23;;;3.47;;
84864;SDS011;75122;41.650;25.368;2024-01-30T00:02:46;8.10;;;3.55;;
84864;SDS011;75122;41.650;25.368;2024-01-30T00:05:12;6.53;;;3.30;;
84864;SDS011;75122;41.650;25.368;2024-01-30T00:07:38;8.20;;;3.55;;
84864;SDS011;75122;41.650;25.368;2024-01-30T00:10:03;9.68;;;4.75;;
84864;SDS011;75122;41.650;25.368;2024-01-30T00:12:31;10.73;;;4.65;;
84864;SDS011;75122;41.650;25.368;2024-01-30T00:14:56;11.13;;;3.97;;
84864;SDS011;75122;41.650;25.368;2024-01-30T00:17:23;8.68;;;4.13;;
84864;SDS011;75122;41.650;25.368;2024-01-30T00:19:50;9.55;;;4.97;;
84864;SDS011;75122;41.650;25.368;2024-01-30T00:22:15;10.25;;;5.47;;
84864;SDS011;75122;41.650;25.368;2024-01-30T00:24:41;11.02;;;4.35;;
84864;SDS011;75122;41.650;25.368;2024-01-30T00:27:06;8.10;;;4.05;;
84864;SDS011;75122;41.650;25.368;2024-01-30T00:29:33;12.82;;;4.18;;
84864;SDS011;75122;41.650;25.368;2024-01-30T00:31:59;18.13;;;6.45;;
84864;SDS011;75122;41.650;25.368;2024-01-30T00:34:25;11.82;;;5.25;;
84864;SDS011;75122;41.650;25.368;2024-01-30T00:36:50;12.73;;;5.22;;
84864;SDS011;75122;41.650;25.368;2024-01-30T00:39:15;51.63;;;16.33;;
84864;SDS011;75122;41.650;25.368;2024-01-30T00:41:41;28.73;;;10.43;;
84864;SDS011;75122;41.650;25.368;2024-01-30T00:44:07;27.20;;;9.63;;
84864;SDS011;75122;41.650;25.368;2024-01-30T00:46:32;27.38;;;9.05;;
84864;SDS011;75122;41.650;25.368;2024-01-30T00:48:57;17.85;;;5.40;;
84864;SDS011;75122;41.650;25.368;2024-01-30T00:51:23;7.82;;;3.70;;
84864;SDS011;75122;41.650;25.368;2024-01-30T00:53:48;5.93;;;3.47;;
84864;SDS011;75122;41.650;25.368;2024-01-30T00:56:14;5.50;;;3.20;;
84864;SDS011;75122;41.650;25.368;2024-01-30T00:58:43;9.00;;;4.05;;
84864;SDS011;75122;41.650;25.368;2024-01-30T01:01:08;6.35;;;2.72;;
84864;SDS011;75122;41.650;25.368;2024-01-30T01:03:33;5.43;;;2.65;;
84864;SDS011;75122;41.650;25.368;2024-01-30T01:05:59;5.75;;;2.88;;
84864;SDS011;75122;41.650;25.368;2024-01-30T01:08:25;6.50;;;2.83;;
84864;SDS011;75122;41.650;25.368;2024-01-30T01:10:50;5.38;;;2.30;;
84864;SDS011;75122;41.650;25.368;2024-01-30T01:13:16;5.93;;;2.88;;
84864;SDS011;75122;41.650;25.368;2024-01-30T01:15:41;3.53;;;1.80;;
84864;SDS011;75122;41.650;25.368;2024-01-30T01:18:06;3.13;;;2.03;;
84864;SDS011;75122;41.650;25.368;2024-01-30T01:20:32;3.25;;;1.67;;
84864;SDS011;75122;41.650;25.368;2024-01-30T01:22:57;3.40;;;1.77;;
84864;SDS011;75122;41.650;25.368;2024-01-30T01:25:22;3.53;;;1.67;;
84864;SDS011;75122;41.650;25.368;2024-01-30T01:27:48;3.47;;;1.95;;
84864;SDS011;75122;41.650;25.368;2024-01-30T01:30:17;3.20;;;1.92;;
84864;SDS011;75122;41.650;25.368;2024-01-30T01:32:47;3.00;;;2.03;;
84864;SDS011;75122;41.650;25.368;2024-01-30T01:35:21;3.10;;;1.60;;
84864;SDS011;75122;41.650;25.368;2024-01-30T01:37:49;3.03;;;2.00;;
84864;SDS011;75122;41.650;25.368;2024-01-30T01:40:20;4.25;;;1.83;;
84864;SDS011;75122;41.650;25.368;2024-01-30T01:42:49;4.82;;;1.95;;
84864;SDS011;75122;41.650;25.368;2024-01-30T01:45:17;1.95;;;1.55;;
84864;SDS011;75122;41.650;25.368;2024-01-30T01:47:42;3.08;;;1.35;;
84864;SDS011;75122;41.650;25.368;2024-01-30T01:50:11;2.88;;;1.75;;
84864;SDS011;75122;41.650;25.368;2024-01-30T01:52:38;1.67;;;1.50;;
84864;SDS011;75122;41.650;25.368;2024-01-30T01:55:05;3.70;;;1.58;;
84864;SDS011;75122;41.650;25.368;2024-01-30T01:57:33;2.90;;;1.67;;
84864;SDS011;75122;41.650;25.368;2024-01-30T02:00:00;2.75;;;1.70;;
84864;SDS011;75122;41.650;25.368;2024-01-30T02:02:27;1.85;;;1.05;;
84864;SDS011;75122;41.650;25.368;2024-01-30T02:04:56;2.20;;;1.30;;
84864;SDS011;75122;41.650;25.368;2024-01-30T02:07:23;3.05;;;1.40;;
84864;SDS011;75122;41.650;25.368;2024-01-30T02:09:49;2.63;;;1.42;;
84864;SDS011;75122;41.650;25.368;2024-01-30T02:12:14;2.30;;;1.33;;
84864;SDS011;75122;41.650;25.368;2024-01-30T02:14:45;2.42;;;1.20;;
84864;SDS011;75122;41.650;25.368;2024-01-30T02:17:12;1.52;;;1.08;;
84864;SDS011;75122;41.650;25.368;2024-01-30T02:19:38;3.33;;;1.80;;
84864;SDS011;75122;41.650;25.368;2024-01-30T02:22:04;2.90;;;1.60;;
84864;SDS011;75122;41.650;25.368;2024-01-30T02:24:29;3.67;;;1.63;;
84864;SDS011;75122;41.650;25.368;2024-01-30T02:26:55;2.47;;;1.50;;
84864;SDS011;75122;41.650;25.368;2024-01-30T02:29:20;5.65;;;1.50;;
84864;SDS011;75122;41.650;25.368;2024-01-30T02:31:46;5.38;;;1.40;;
84864;SDS011;75122;41.650;25.368;2024-01-30T02:34:13;2.95;;;1.23;;
84864;SDS011;75122;41.650;25.368;2024-01-30T02:36:41;2.53;;;1.40;;
84864;SDS011;75122;41.650;25.368;2024-01-30T02:39:08;1.85;;;1.27;;
84864;SDS011;75122;41.650;25.368;2024-01-30T02:41:33;5.38;;;1.67;;
84864;SDS011;75122;41.650;25.368;2024-01-30T02:43:59;2.83;;;1.58;;
84864;SDS011;75122;41.650;25.368;2024-01-30T02:46:24;2.55;;;1.60;;
84864;SDS011;75122;41.650;25.368;2024-01-30T02:48:49;2.50;;;1.77;;
84864;SDS011;75122;41.650;25.368;2024-01-30T02:51:15;3.70;;;1.40;;
84864;SDS011;75122;41.650;25.368;2024-01-30T02:53:40;2.42;;;1.30;;
84864;SDS011;75122;41.650;25.368;2024-01-30T02:56:06;2.30;;;1.30;;
84864;SDS011;75122;41.650;25.368;2024-01-30T02:58:34;3.13;;;1.40;;
84864;SDS011;75122;41.650;25.368;2024-01-30T03:01:00;2.00;;;0.95;;
84864;SDS011;75122;41.650;25.368;2024-01-30T03:03:25;2.53;;;1.38;;
84864;SDS011;75122;41.650;25.368;2024-01-30T03:05:51;2.92;;;1.40;;
84864;SDS011;75122;41.650;25.368;2024-01-30T03:08:16;2.33;;;1.60;;
84864;SDS011;75122;41.650;25.368;2024-01-30T03:10:42;2.83;;;1.63;;
84864;SDS011;75122;41.650;25.368;2024-01-30T03:13:07;3.17;;;1.50;;
84864;SDS011;75122;41.650;25.368;2024-01-30T03:15:32;1.80;;;1.40;;
84864;SDS011;75122;41.650;25.368;2024-01-30T03:17:58;5.00;;;1.50;;
84864;SDS011;75122;41.650;25.368;2024-01-30T03:20:23;3.70;;;1.80;;
84864;SDS011;75122;41.650;25.368;2024-01-30T03:22:49;3.47;;;1.55;;
84864;SDS011;75122;41.650;25.368;2024-01-30T03:25:14;4.95;;;1.80;;
84864;SDS011;75122;41.650;25.368;2024-01-30T03:27:40;2.10;;;1.40;;
84864;SDS011;75122;41.650;25.368;2024-01-30T03:30:08;1.60;;;1.30;;
84864;SDS011;75122;41.650;25.368;2024-01-30T03:32:34;2.80;;;1.50;;
84864;SDS011;75122;41.650;25.368;2024-01-30T03:35:00;3.15;;;1.75;;
84864;SDS011;75122;41.650;25.368;2024-01-30T03:37:25;3.65;;;1.67;;
84864;SDS011;75122;41.650;25.368;2024-01-30T03:39:51;2.80;;;1.50;;
84864;SDS011;75122;41.650;25.368;2024-01-30T03:42:16;4.85;;;1.85;;
84864;SDS011;75122;41.650;25.368;2024-01-30T03:44:41;3.47;;;1.80;;
84864;SDS011;75122;41.650;25.368;2024-01-30T03:47:07;2.75;;;1.98;;
84864;SDS011;75122;41.650;25.368;2024-01-30T03:49:33;3.17;;;1.20;;
84864;SDS011;75122;41.650;25.368;2024-01-30T03:51:58;2.58;;;1.20;;
84864;SDS011;75122;41.650;25.368;2024-01-30T03:54:24;4.18;;;1.80;;
84864;SDS011;75122;41.650;25.368;2024-01-30T03:56:49;3.22;;;1.98;;
84864;SDS011;75122;41.650;25.368;2024-01-30T03:59:14;3.17;;;1.70;;
84864;SDS011;75122;41.650;25.368;2024-01-30T04:01:40;4.20;;;1.98;;
84864;SDS011;75122;41.650;25.368;2024-01-30T04:04:05;2.40;;;1.40;;
84864;SDS011;75122;41.650;25.368;2024-01-30T04:06:31;3.40;;;1.55;;
84864;SDS011;75122;41.650;25.368;2024-01-30T04:08:56;2.03;;;1.35;;
84864;SDS011;75122;41.650;25.368;2024-01-30T04:11:22;2.30;;;1.50;;
84864;SDS011;75122;41.650;25.368;2024-01-30T04:13:47;2.67;;;1.65;;
84864;SDS011;75122;41.650;25.368;2024-01-30T04:16:22;3.70;;;1.85;;
84864;SDS011;75122;41.650;25.368;2024-01-30T04:18:48;2.53;;;1.30;;
84864;SDS011;75122;41.650;25.368;2024-01-30T04:21:14;2.83;;;1.45;;
84864;SDS011;75122;41.650;25.368;2024-01-30T04:23:40;3.50;;;1.50;;
84864;SDS011;75122;41.650;25.368;2024-01-30T04:26:05;3.25;;;1.80;;
84864;SDS011;75122;41.650;25.368;2024-01-30T04:28:31;3.05;;;1.48;;
84864;SDS011;75122;41.650;25.368;2024-01-30T04:30:56;3.10;;;1.98;;
84864;SDS011;75122;41.650;25.368;2024-01-30T04:33:22;3.70;;;1.60;;
84864;SDS011;75122;41.650;25.368;2024-01-30T04:35:47;4.28;;;2.03;;
84864;SDS011;75122;41.650;25.368;2024-01-30T04:38:13;2.10;;;1.02;;
84864;SDS011;75122;41.650;25.368;2024-01-30T04:40:39;4.32;;;1.88;;
84864;SDS011;75122;41.650;25.368;2024-01-30T04:43:05;3.45;;;1.70;;
84864;SDS011;75122;41.650;25.368;2024-01-30T04:45:30;5.13;;;2.05;;
84864;SDS011;75122;41.650;25.368;2024-01-30T04:47:56;5.88;;;2.55;;
84864;SDS011;75122;41.650;25.368;2024-01-30T04:50:22;6.22;;;2.03;;
84864;SDS011;75122;41.650;25.368;2024-01-30T04:52:48;3.58;;;2.00;;
84864;SDS011;75122;41.650;25.368;2024-01-30T04:55:14;4.22;;;2.28;;
84864;SDS011;75122;41.650;25.368;2024-01-30T04:57:39;5.07;;;2.15;;
84864;SDS011;75122;41.650;25.368;2024-01-30T05:00:05;4.97;;;2.70;;
84864;SDS011;75122;41.650;25.368;2024-01-30T05:02:31;4.32;;;2.65;;
84864;SDS011;75122;41.650;25.368;2024-01-30T05:04:56;3.95;;;2.53;;
84864;SDS011;75122;41.650;25.368;2024-01-30T05:07:24;6.40;;;2.83;;
84864;SDS011;75122;41.650;25.368;2024-01-30T05:09:49;12.90;;;5.68;;
84864;SDS011;75122;41.650;25.368;2024-01-30T05:12:15;9.82;;;3.05;;
84864;SDS011;75122;41.650;25.368;2024-01-30T05:14:40;4.53;;;2.80;;
84864;SDS011;75122;41.650;25.368;2024-01-30T05:17:06;6.68;;;2.67;;
84864;SDS011;75122;41.650;25.368;2024-01-30T05:19:35;10.60;;;4.35;;
84864;SDS011;75122;41.650;25.368;2024-01-30T05:22:01;9.65;;;4.72;;
84864;SDS011;75122;41.650;25.368;2024-01-30T05:24:26;23.70;;;9.57;;
84864;SDS011;75122;41.650;25.368;2024-01-30T05:26:52;22.85;;;9.13;;
84864;SDS011;75122;41.650;25.368;2024-01-30T05:29:17;13.82;;;4.63;;
84864;SDS011;75122;41.650;25.368;2024-01-30T05:31:42;19.85;;;6.13;;
84864;SDS011;75122;41.650;25.368;2024-01-30T05:34:08;8.25;;;4.15;;
84864;SDS011;75122;41.650;25.368;2024-01-30T05:36:34;8.68;;;4.10;;
84864;SDS011;75122;41.650;25.368;2024-01-30T05:38:59;14.02;;;5.22;;
84864;SDS011;75122;41.650;25.368;2024-01-30T05:41:24;9.18;;;4.45;;
84864;SDS011;75122;41.650;25.368;2024-01-30T05:43:50;5.80;;;3.08;;
84864;SDS011;75122;41.650;25.368;2024-01-30T05:46:15;9.90;;;3.92;;
84864;SDS011;75122;41.650;25.368;2024-01-30T05:48:41;10.52;;;2.88;;
84864;SDS011;75122;41.650;25.368;2024-01-30T05:51:07;5.63;;;3.33;;
84864;SDS011;75122;41.650;25.368;2024-01-30T05:53:33;5.25;;;3.15;;
84864;SDS011;75122;41.650;25.368;2024-01-30T05:55:59;5.75;;;3.15;;
84864;SDS011;75122;41.650;25.368;2024-01-30T05:58:26;6.75;;;3.10;;
84864;SDS011;75122;41.650;25.368;2024-01-30T06:00:51;5.88;;;3.40;;
84864;SDS011;75122;41.650;25.368;2024-01-30T06:03:17;7.30;;;2.88;;
84864;SDS011;75122;41.650;25.368;2024-01-30T06:05:42;5.68;;;2.92;;
84864;SDS011;75122;41.650;25.368;2024-01-30T06:08:08;4.05;;;2.13;;
84864;SDS011;75122;41.650;25.368;2024-01-30T06:10:33;8.30;;;3.70;;
84864;SDS011;75122;41.650;25.368;2024-01-30T06:12:58;6.15;;;3.08;;
84864;SDS011;75122;41.650;25.368;2024-01-30T06:15:24;12.55;;;3.95;;
84864;SDS011;75122;41.650;25.368;2024-01-30T06:17:49;12.85;;;3.40;;
84864;SDS011;75122;41.650;25.368;2024-01-30T06:20:15;5.53;;;2.55;;
84864;SDS011;75122;41.650;25.368;2024-01-30T06:22:40;5.15;;;2.50;;
84864;SDS011;75122;41.650;25.368;2024-01-30T06:25:06;3.80;;;2.33;;
84864;SDS011;75122;41.650;25.368;2024-01-30T06:27:31;6.50;;;3.33;;
84864;SDS011;75122;41.650;25.368;2024-01-30T06:29:57;8.18;;;3.50;;
84864;SDS011;75122;41.650;25.368;2024-01-30T06:32:22;8.77;;;4.38;;
84864;SDS011;75122;41.650;25.368;2024-01-30T06:34:48;20.55;;;6.78;;
84864;SDS011;75122;41.650;25.368;2024-01-30T06:37:13;10.63;;;3.72;;
84864;SDS011;75122;41.650;25.368;2024-01-30T06:39:38;12.35;;;4.90;;
84864;SDS011;75122;41.650;25.368;2024-01-30T06:42:04;12.18;;;4.70;;
84864;SDS011;75122;41.650;25.368;2024-01-30T06:44:30;16.20;;;6.57;;
84864;SDS011;75122;41.650;25.368;2024-01-30T06:46:55;18.73;;;8.27;;
84864;SDS011;75122;41.650;25.368;2024-01-30T06:49:20;7.18;;;3.85;;
84864;SDS011;75122;41.650;25.368;2024-01-30T06:51:47;8.18;;;3.53;;
84864;SDS011;75122;41.650;25.368;2024-01-30T06:54:12;9.13;;;3.75;;
84864;SDS011;75122;41.650;25.368;2024-01-30T06:56:38;5.53;;;3.08;;
84864;SDS011;75122;41.650;25.368;2024-01-30T06:59:04;6.13;;;3.38;;
84864;SDS011;75122;41.650;25.368;2024-01-30T07:01:30;6.68;;;3.53;;
84864;SDS011;75122;41.650;25.368;2024-01-30T07:03:55;6.68;;;3.90;;
84864;SDS011;75122;41.650;25.368;2024-01-30T07:06:21;9.15;;;4.47;;
84864;SDS011;75122;41.650;25.368;2024-01-30T07:08:49;7.50;;;3.97;;
84864;SDS011;75122;41.650;25.368;2024-01-30T07:11:21;9.00;;;3.60;;
84864;SDS011;75122;41.650;25.368;2024-01-30T07:13:48;6.28;;;3.92;;
84864;SDS011;75122;41.650;25.368;2024-01-30T07:16:15;5.43;;;2.75;;
84864;SDS011;75122;41.650;25.368;2024-01-30T07:18:40;5.28;;;2.90;;
84864;SDS011;75122;41.650;25.368;2024-01-30T07:21:06;3.75;;;2.05;;
84864;SDS011;75122;41.650;25.368;2024-01-30T07:23:31;3.33;;;1.95;;
84864;SDS011;75122;41.650;25.368;2024-01-30T07:25:59;6.25;;;2.75;;
84864;SDS011;75122;41.650;25.368;2024-01-30T07:28:24;8.10;;;3.58;;
84864;SDS011;75122;41.650;25.368;2024-01-30T07:30:50;6.00;;;2.80;;
84864;SDS011;75122;41.650;25.368;2024-01-30T07:33:15;5.80;;;3.50;;
84864;SDS011;75122;41.650;25.368;2024-01-30T07:35:41;9.57;;;4.43;;
84864;SDS011;75122;41.650;25.368;2024-01-30T07:38:06;6.30;;;3.15;;
84864;SDS011;75122;41.650;25.368;2024-01-30T07:40:32;6.68;;;3.55;;
84864;SDS011;75122;41.650;25.368;2024-01-30T07:42:58;8.73;;;3.63;;
84864;SDS011;75122;41.650;25.368;2024-01-30T07:45:23;5.28;;;2.70;;
84864;SDS011;75122;41.650;25.368;2024-01-30T07:47:50;11.02;;;4.82;;
84864;SDS011;75122;41.650;25.368;2024-01-30T07:50:16;4.93;;;2.78;;
84864;SDS011;75122;41.650;25.368;2024-01-30T07:52:43;5.72;;;2.90;;
84864;SDS011;75122;41.650;25.368;2024-01-30T07:55:09;6.25;;;2.63;;
84864;SDS011;75122;41.650;25.368;2024-01-30T07:57:54;7.40;;;2.92;;
84864;SDS011;75122;41.650;25.368;2024-01-30T08:00:22;3.65;;;1.83;;
84864;SDS011;75122;41.650;25.368;2024-01-30T08:02:47;6.05;;;2.55;;
84864;SDS011;75122;41.650;25.368;2024-01-30T08:05:13;5.97;;;3.30;;
84864;SDS011;75122;41.650;25.368;2024-01-30T08:07:40;6.20;;;3.97;;
84864;SDS011;75122;41.650;25.368;2024-01-30T08:10:07;5.20;;;2.85;;
84864;SDS011;75122;41.650;25.368;2024-01-30T08:12:33;5.32;;;2.83;;
84864;SDS011;75122;41.650;25.368;2024-01-30T08:14:58;6.18;;;2.88;;
84864;SDS011;75122;41.650;25.368;2024-01-30T08:17:23;10.63;;;3.53;;
84864;SDS011;75122;41.650;25.368;2024-01-30T08:19:49;9.98;;;4.93;;
84864;SDS011;75122;41.650;25.368;2024-01-30T08:22:14;9.95;;;4.82;;
84864;SDS011;75122;41.650;25.368;2024-01-30T08:24:40;7.93;;;3.83;;
84864;SDS011;75122;41.650;25.368;2024-01-30T08:27:06;12.90;;;6.05;;
84864;SDS011;75122;41.650;25.368;2024-01-30T08:29:34;9.07;;;4.03;;
84864;SDS011;75122;41.650;25.368;2024-01-30T08:32:00;7.63;;;3.40;;
84864;SDS011;75122;41.650;25.368;2024-01-30T08:34:25;4.75;;;3.15;;
84864;SDS011;75122;41.650;25.368;2024-01-30T08:36:51;5.75;;;3.80;;
84864;SDS011;75122;41.650;25.368;2024-01-30T08:39:16;5.70;;;3.40;;
84864;SDS011;75122;41.650;25.368;2024-01-30T08:41:42;4.63;;;2.55;;
84864;SDS011;75122;41.650;25.368;2024-01-30T08:44:07;9.18;;;2.90;;
84864;SDS011;75122;41.650;25.368;2024-01-30T08:46:32;6.90;;;3.17;;
84864;SDS011;75122;41.650;25.368;2024-01-30T08:48:59;7.22;;;3.47;;
84864;SDS011;75122;41.650;25.368;2024-01-30T08:51:24;5.85;;;2.95;;
84864;SDS011;75122;41.650;25.368;2024-01-30T08:53:49;11.57;;;5.05;;
84864;SDS011;75122;41.650;25.368;2024-01-30T08:56:15;7.30;;;2.67;;
84864;SDS011;75122;41.650;25.368;2024-01-30T08:58:41;5.55;;;3.00;;
84864;SDS011;75122;41.650;25.368;2024-01-30T09:01:06;14.40;;;3.35;;
84864;SDS011;75122;41.650;25.368;2024-01-30T09:03:32;7.68;;;3.33;;
84864;SDS011;75122;41.650;25.368;2024-01-30T09:05:57;6.28;;;3.08;;
84864;SDS011;75122;41.650;25.368;2024-01-30T09:08:23;5.30;;;2.30;;
84864;SDS011;75122;41.650;25.368;2024-01-30T09:10:48;4.90;;;3.20;;
84864;SDS011;75122;41.650;25.368;2024-01-30T09:13:15;6.20;;;3.63;;
84864;SDS011;75122;41.650;25.368;2024-01-30T09:15:41;3.55;;;2.28;;
84864;SDS011;75122;41.650;25.368;2024-01-30T09:18:07;5.50;;;2.70;;
84864;SDS011;75122;41.650;25.368;2024-01-30T09:20:32;3.30;;;2.08;;
84864;SDS011;75122;41.650;25.368;2024-01-30T09:22:58;5.63;;;2.72;;
84864;SDS011;75122;41.650;25.368;2024-01-30T09:25:23;4.95;;;2.95;;
84864;SDS011;75122;41.650;25.368;2024-01-30T09:27:49;5.47;;;3.08;;
84864;SDS011;75122;41.650;25.368;2024-01-30T09:30:15;5.72;;;2.72;;
84864;SDS011;75122;41.650;25.368;2024-01-30T09:32:41;6.65;;;3.38;;
84864;SDS011;75122;41.650;25.368;2024-01-30T09:35:08;4.93;;;2.45;;
84864;SDS011;75122;41.650;25.368;2024-01-30T09:37:34;6.78;;;3.35;;
84864;SDS011;75122;41.650;25.368;2024-01-30T09:39:59;6.13;;;3.05;;
84864;SDS011;75122;41.650;25.368;2024-01-30T09:42:31;7.57;;;3.25;;
84864;SDS011;75122;41.650;25.368;2024-01-30T09:45:01;5.25;;;2.53;;
84864;SDS011;75122;41.650;25.368;2024-01-30T09:47:32;6.43;;;2.65;;
84864;SDS011;75122;41.650;25.368;2024-01-30T09:50:05;9.57;;;3.70;;
84864;SDS011;75122;41.650;25.368;2024-01-30T09:52:32;7.55;;;2.83;;
84864;SDS011;75122;41.650;25.368;2024-01-30T09:54:59;8.80;;;3.45;;
84864;SDS011;75122;41.650;25.368;2024-01-30T09:57:25;10.13;;;4.75;;
84864;SDS011;75122;41.650;25.368;2024-01-30T09:59:51;8.35;;;3.70;;
84864;SDS011;75122;41.650;25.368;2024-01-30T10:02:19;7.90;;;3.92;;
84864;SDS011;75122;41.650;25.368;2024-01-30T10:04:45;4.22;;;2.22;;
84864;SDS011;75122;41.650;25.368;2024-01-30T10:07:13;5.88;;;2.97;;
84864;SDS011;75122;41.650;25.368;2024-01-30T10:09:39;7.82;;;3.35;;
84864;SDS011;75122;41.650;25.368;2024-01-30T10:12:05;7.18;;;3.47;;
84864;SDS011;75122;41.650;25.368;2024-01-30T10:14:31;5.47;;;3.13;;
84864;SDS011;75122;41.650;25.368;2024-01-30T10:16:57;5.07;;;2.65;;
84864;SDS011;75122;41.650;25.368;2024-01-30T10:19:23;9.40;;;4.30;;
84864;SDS011;75122;41.650;25.368;2024-01-30T10:21:48;10.27;;;4.68;;
84864;SDS011;75122;41.650;25.368;2024-01-30T10:24:14;7.10;;;3.75;;
84864;SDS011;75122;41.650;25.368;2024-01-30T10:26:40;10.77;;;4.47;;
84864;SDS011;75122;41.650;25.368;2024-01-30T10:29:05;14.10;;;4.47;;
84864;SDS011;75122;41.650;25.368;2024-01-30T10:31:31;8.38;;;4.03;;
84864;SDS011;75122;41.650;25.368;2024-01-30T10:33:56;8.50;;;3.90;;
84864;SDS011;75122;41.650;25.368;2024-01-30T10:36:23;13.02;;;7.70;;
84864;SDS011;75122;41.650;25.368;2024-01-30T10:38:54;11.20;;;6.32;;
84864;SDS011;75122;41.650;25.368;2024-01-30T10:41:26;16.02;;;6.90;;
84864;SDS011;75122;41.650;25.368;2024-01-30T10:44:02;13.77;;;6.82;;
84864;SDS011;75122;41.650;25.368;2024-01-30T10:46:33;15.65;;;7.38;;
84864;SDS011;75122;41.650;25.368;2024-01-30T10:49:00;15.88;;;6.80;;
84864;SDS011;75122;41.650;25.368;2024-01-30T10:51:28;18.45;;;8.40;;
84864;SDS011;75122;41.650;25.368;2024-01-30T10:53:55;19.23;;;8.43;;
84864;SDS011;75122;41.650;25.368;2024-01-30T10:56:21;23.27;;;9.82;;
84864;SDS011;75122;41.650;25.368;2024-01-30T10:58:51;14.63;;;5.70;;
84864;SDS011;75122;41.650;25.368;2024-01-30T11:01:21;11.60;;;5.45;;
84864;SDS011;75122;41.650;25.368;2024-01-30T11:03:51;13.85;;;5.95;;
84864;SDS011;75122;41.650;25.368;2024-01-30T11:06:17;8.60;;;4.47;;
84864;SDS011;75122;41.650;25.368;2024-01-30T11:08:45;12.25;;;4.65;;
84864;SDS011;75122;41.650;25.368;2024-01-30T11:11:11;17.30;;;6.95;;
84864;SDS011;75122;41.650;25.368;2024-01-30T11:13:36;11.48;;;4.65;;
84864;SDS011;75122;41.650;25.368;2024-01-30T11:16:02;12.85;;;5.80;;
84864;SDS011;75122;41.650;25.368;2024-01-30T11:18:31;10.35;;;4.20;;
84864;SDS011;75122;41.650;25.368;2024-01-30T11:20:58;11.13;;;6.22;;
84864;SDS011;75122;41.650;25.368;2024-01-30T11:23:26;11.13;;;6.50;;
84864;SDS011;75122;41.650;25.368;2024-01-30T11:25:53;12.35;;;6.20;;
84864;SDS011;75122;41.650;25.368;2024-01-30T11:28:18;17.58;;;6.95;;
84864;SDS011;75122;41.650;25.368;2024-01-30T11:30:46;6.75;;;3.20;;
84864;SDS011;75122;41.650;25.368;2024-01-30T11:33:13;13.73;;;5.90;;
84864;SDS011;75122;41.650;25.368;2024-01-30T11:35:43;13.75;;;6.63;;
84864;SDS011;75122;41.650;25.368;2024-01-30T11:38:11;11.65;;;5.32;;
84864;SDS011;75122;41.650;25.368;2024-01-30T11:40:38;9.75;;;4.70;;
84864;SDS011;75122;41.650;25.368;2024-01-30T11:43:04;11.75;;;6.63;;
84864;SDS011;75122;41.650;25.368;2024-01-30T11:45:31;15.02;;;6.40;;
84864;SDS011;75122;41.650;25.368;2024-01-30T11:47:57;22.58;;;10.95;;
84864;SDS011;75122;41.650;25.368;2024-01-30T11:50:25;14.27;;;6.65;;
84864;SDS011;75122;41.650;25.368;2024-01-30T11:52:51;11.00;;;6.60;;
84864;SDS011;75122;41.650;25.368;2024-01-30T11:55:16;16.95;;;7.80;;
84864;SDS011;75122;41.650;25.368;2024-01-30T11:57:42;9.85;;;4.55;;
84864;SDS011;75122;41.650;25.368;2024-01-30T12:00:16;11.27;;;5.80;;
84864;SDS011;75122;41.650;25.368;2024-01-30T12:02:43;9.45;;;5.50;;
84864;SDS011;75122;41.650;25.368;2024-01-30T12:05:09;12.35;;;4.82;;
84864;SDS011;75122;41.650;25.368;2024-01-30T12:07:35;7.70;;;4.68;;
84864;SDS011;75122;41.650;25.368;2024-01-30T12:10:01;14.80;;;6.97;;
84864;SDS011;75122;41.650;25.368;2024-01-30T12:12:28;10.38;;;4.05;;
84864;SDS011;75122;41.650;25.368;2024-01-30T12:14:55;7.18;;;4.43;;
84864;SDS011;75122;41.650;25.368;2024-01-30T12:19:51;12.52;;;5.40;;
84864;SDS011;75122;41.650;25.368;2024-01-30T12:22:28;9.05;;;4.97;;
84864;SDS011;75122;41.650;25.368;2024-01-30T12:24:53;14.00;;;6.03;;
84864;SDS011;75122;41.650;25.368;2024-01-30T12:27:19;10.68;;;4.93;;
84864;SDS011;75122;41.650;25.368;2024-01-30T12:29:44;12.38;;;5.80;;
84864;SDS011;75122;41.650;25.368;2024-01-30T12:32:14;9.73;;;4.35;;
84864;SDS011;75122;41.650;25.368;2024-01-30T12:34:41;19.13;;;5.18;;
84864;SDS011;75122;41.650;25.368;2024-01-30T12:37:07;17.73;;;7.30;;
84864;SDS011;75122;41.650;25.368;2024-01-30T12:39:34;22.10;;;6.63;;
84864;SDS011;75122;41.650;25.368;2024-01-30T12:42:00;8.45;;;3.42;;
84864;SDS011;75122;41.650;25.368;2024-01-30T12:44:25;8.95;;;4.45;;
84864;SDS011;75122;41.650;25.368;2024-01-30T12:46:51;7.45;;;3.88;;
84864;SDS011;75122;41.650;25.368;2024-01-30T12:49:16;13.23;;;6.63;;
84864;SDS011;75122;41.650;25.368;2024-01-30T12:51:42;17.25;;;7.50;;
84864;SDS011;75122;41.650;25.368;2024-01-30T12:54:07;12.52;;;5.60;;
84864;SDS011;75122;41.650;25.368;2024-01-30T12:56:33;12.45;;;5.68;;
84864;SDS011;75122;41.650;25.368;2024-01-30T12:58:59;7.38;;;4.13;;
84864;SDS011;75122;41.650;25.368;2024-01-30T13:01:24;9.30;;;4.13;;
84864;SDS011;75122;41.650;25.368;2024-01-30T13:03:50;7.32;;;3.80;;
84864;SDS011;75122;41.650;25.368;2024-01-30T13:06:15;4.88;;;3.25;;
84864;SDS011;75122;41.650;25.368;2024-01-30T13:08:41;9.98;;;4.22;;
84864;SDS011;75122;41.650;25.368;2024-01-30T13:11:06;7.75;;;4.30;;
84864;SDS011;75122;41.650;25.368;2024-01-30T13:13:32;5.70;;;2.97;;
84864;SDS011;75122;41.650;25.368;2024-01-30T13:15:58;5.55;;;3.40;;
84864;SDS011;75122;41.650;25.368;2024-01-30T13:18:23;16.75;;;3.78;;
84864;SDS011;75122;41.650;25.368;2024-01-30T13:20:48;7.38;;;3.17;;
84864;SDS011;75122;41.650;25.368;2024-01-30T13:23:14;8.30;;;3.58;;
84864;SDS011;75122;41.650;25.368;2024-01-30T13:25:39;7.43;;;4.57;;
84864;SDS011;75122;41.650;25.368;2024-01-30T13:28:05;5.53;;;3.33;;
84864;SDS011;75122;41.650;25.368;2024-01-30T13:30:30;7.82;;;4.03;;
84864;SDS011;75122;41.650;25.368;2024-01-30T13:32:56;14.25;;;6.68;;
84864;SDS011;75122;41.650;25.368;2024-01-30T13:35:21;8.90;;;4.93;;
84864;SDS011;75122;41.650;25.368;2024-01-30T13:37:47;13.63;;;6.25;;
84864;SDS011;75122;41.650;25.368;2024-01-30T13:40:13;13.65;;;5.03;;
84864;SDS011;75122;41.650;25.368;2024-01-30T13:42:39;27.83;;;11.65;;
84864;SDS011;75122;41.650;25.368;2024-01-30T13:45:05;22.52;;;9.43;;
84864;SDS011;75122;41.650;25.368;2024-01-30T13:47:30;15.68;;;7.30;;
84864;SDS011;75122;41.650;25.368;2024-01-30T13:49:56;12.48;;;7.15;;
84864;SDS011;75122;41.650;25.368;2024-01-30T13:52:22;11.35;;;6.45;;
84864;SDS011;75122;41.650;25.368;2024-01-30T13:54:47;8.25;;;4.18;;
84864;SDS011;75122;41.650;25.368;2024-01-30T13:57:13;8.43;;;5.05;;
84864;SDS011;75122;41.650;25.368;2024-01-30T13:59:38;10.57;;;5.32;;
84864;SDS011;75122;41.650;25.368;2024-01-30T14:02:04;10.85;;;6.40;;
84864;SDS011;75122;41.650;25.368;2024-01-30T14:04:30;11.60;;;5.50;;
84864;SDS011;75122;41.650;25.368;2024-01-30T14:06:56;9.10;;;3.97;;
84864;SDS011;75122;41.650;25.368;2024-01-30T14:09:21;4.57;;;2.70;;
84864;SDS011;75122;41.650;25.368;2024-01-30T14:11:47;5.05;;;3.45;;
84864;SDS011;75122;41.650;25.368;2024-01-30T14:14:12;5.10;;;2.78;;
84864;SDS011;75122;41.650;25.368;2024-01-30T14:16:37;8.52;;;4.30;;
84864;SDS011;75122;41.650;25.368;2024-01-30T14:19:03;13.32;;;5.53;;
84864;SDS011;75122;41.650;25.368;2024-01-30T14:21:28;21.60;;;8.20;;
84864;SDS011;75122;41.650;25.368;2024-01-30T14:23:54;8.27;;;4.63;;
84864;SDS011;75122;41.650;25.368;2024-01-30T14:26:19;6.80;;;3.22;;